Time;durP1;ratioP1;P1;durP2;ratioP2;P2;SDS_P1;SDS_P2;PMS_P1;PMS_P2;Temp;Humidity;BMP_temperature;BMP_pressure;BME280_temperature;BME280_humidity;BME280_pressure;Samples;Min_cycle;Max_cycle;Signal;HPM_P1;HPM_P2
2023/03/28 00:01:01;;;;;;;1.70;1.60;;;6.20;67.20;5.80;96865.00;;;;5117441;28;20191;-78
2023/03/28 00:03:35;;;;;;;2.40;1.60;;;6.20;67.10;5.80;96881.00;;;;5099385;28;20737;-78
2023/03/28 00:06:04;;;;;;;2.57;1.50;;;6.20;67.10;5.80;96878.00;;;;5108081;28;20551;-79
2023/03/28 00:08:31;;;;;;;1.80;1.70;;;6.20;67.20;5.80;96880.00;;;;5109397;28;20201;-78
2023/03/28 00:11:04;;;;;;;2.30;2.10;;;6.20;67.20;5.80;96880.00;;;;5112661;28;20289;-78
2023/03/28 00:13:32;;;;;;;2.07;1.93;;;6.20;67.30;5.80;96881.00;;;;5095257;28;20226;-78
2023/03/28 00:16:07;;;;;;;2.03;1.90;;;6.30;67.40;5.80;96890.00;;;;5109926;28;20226;-78
2023/03/28 00:18:37;;;;;;;2.00;1.87;;;6.30;67.40;5.80;96890.00;;;;5101792;28;20279;-78
2023/03/28 00:21:18;;;;;;;2.80;2.43;;;6.30;67.30;5.80;96891.00;;;;5107360;28;20244;-78
2023/03/28 00:23:45;;;;;;;1.97;1.87;;;6.20;67.40;5.80;96891.00;;;;5110723;28;20195;-79
2023/03/28 00:26:14;;;;;;;3.53;2.37;;;6.30;67.50;5.80;96902.00;;;;5097569;28;20203;-77
2023/03/28 00:28:44;;;;;;;2.07;1.87;;;6.20;68.00;5.80;96885.00;;;;5120192;27;20248;-77
2023/03/28 00:31:12;;;;;;;2.00;1.90;;;6.20;67.30;5.80;96902.00;;;;5115687;27;20188;-77
2023/03/28 00:33:42;;;;;;;2.23;2.10;;;6.20;67.30;5.80;96892.00;;;;5108014;27;20195;-78
2023/03/28 00:36:13;;;;;;;3.93;1.97;;;6.20;67.50;5.80;96890.00;;;;5113835;27;20301;-79
2023/03/28 00:38:41;;;;;;;2.00;1.90;;;6.20;67.50;5.80;96895.00;;;;5110836;28;20634;-77
2023/03/28 00:41:09;;;;;;;2.67;2.00;;;6.30;67.50;5.80;96899.00;;;;5097516;28;20199;-78
2023/03/28 00:43:40;;;;;;;2.10;1.90;;;6.20;67.20;5.80;96895.00;;;;5103265;28;20187;-78
2023/03/28 00:46:16;;;;;;;2.10;1.87;;;6.30;67.30;5.80;96897.00;;;;5099874;28;20243;-78
2023/03/28 00:48:52;;;;;;;2.60;1.80;;;6.30;67.40;5.80;96913.00;;;;5124971;27;20297;-78
2023/03/28 00:51:26;;;;;;;2.23;1.90;;;6.30;67.40;5.80;96911.00;;;;5117766;27;20278;-78
2023/03/28 00:53:58;;;;;;;2.63;1.77;;;6.30;67.30;5.80;96908.00;;;;5111541;27;20226;-79
2023/03/28 00:56:30;;;;;;;1.83;1.73;;;6.30;67.30;5.80;96914.00;;;;5097891;27;20191;-79
2023/03/28 00:59:01;;;;;;;1.80;1.70;;;6.30;67.10;5.80;96919.00;;;;5129874;27;20585;-79
2023/03/28 01:01:28;;;;;;;2.10;2.00;;;6.30;67.20;5.80;96915.00;;;;5109254;27;20237;-78
2023/03/28 01:04:01;;;;;;;2.10;1.80;;;6.30;67.10;5.80;96918.00;;;;5122176;27;20207;-78
2023/03/28 01:06:31;;;;;;;2.27;1.90;;;6.30;67.20;5.80;96919.00;;;;5108936;27;20204;-78
2023/03/28 01:09:03;;;;;;;2.10;1.90;;;6.30;67.20;5.80;96916.00;;;;5098584;28;20215;-78
2023/03/28 01:11:31;;;;;;;2.60;1.90;;;6.30;67.20;5.80;96919.00;;;;5112714;28;20251;-78
2023/03/28 01:14:03;;;;;;;1.90;1.70;;;6.20;67.00;5.80;96918.00;;;;5115853;27;20580;-78
2023/03/28 01:16:31;;;;;;;2.00;1.90;;;6.20;66.90;5.70;96926.00;;;;5122602;27;20698;-77
2023/03/28 01:19:01;;;;;;;1.80;1.70;;;6.20;66.90;5.70;96924.00;;;;5096607;28;20215;-79
2023/03/28 01:22:29;;;;;;;2.20;2.00;;;6.20;67.70;5.70;96921.00;;;;5102889;27;20739;-78
2023/03/28 01:25:53;;;;;;;1.80;1.70;;;6.20;67.30;5.70;96926.00;;;;5115883;27;20198;-79
2023/03/28 01:28:41;;;;;;;2.03;1.93;;;6.20;67.10;5.70;96931.00;;;;5100220;28;20285;-78
2023/03/28 01:31:42;;;;;;;2.53;1.80;;;6.20;67.00;5.60;96935.00;;;;5098369;28;20199;-78
2023/03/28 01:35:01;;;;;;;2.37;1.90;;;6.10;66.90;5.60;96933.00;;;;5111142;28;20283;-78
2023/03/28 01:37:44;;;;;;;2.23;2.00;;;6.10;67.00;5.60;96932.00;;;;5104436;28;20203;-78
2023/03/28 01:40:37;;;;;;;2.10;2.00;;;6.10;67.10;5.60;96933.00;;;;5123671;27;20210;-78
2023/03/28 01:43:30;;;;;;;2.33;2.10;;;6.10;67.40;5.60;96932.00;;;;5127887;27;20199;-78
2023/03/28 01:46:07;;;;;;;2.00;1.90;;;6.10;67.30;5.60;96937.00;;;;5108115;28;20211;-78
2023/03/28 01:48:49;;;;;;;3.10;1.90;;;6.10;67.20;5.50;96937.00;;;;5093451;28;20884;-79
2023/03/28 01:51:31;;;;;;;2.23;2.03;;;6.00;67.20;5.50;96940.00;;;;5110809;27;20577;-78
2023/03/28 01:54:06;;;;;;;2.23;2.03;;;6.00;67.20;5.50;96941.00;;;;5113184;28;20685;-78
2023/03/28 01:56:41;;;;;;;2.73;2.20;;;6.00;67.20;5.50;96940.00;;;;5123153;27;20666;-78
2023/03/28 01:59:19;;;;;;;2.50;2.30;;;6.00;67.30;5.50;96937.00;;;;5111078;28;20809;-78
2023/03/28 02:01:58;;;;;;;2.53;2.33;;;6.00;67.30;5.50;96941.00;;;;5121942;27;20194;-78
2023/03/28 02:04:28;;;;;;;3.20;2.40;;;6.00;67.40;5.50;96940.00;;;;5109761;28;20194;-78
2023/03/28 02:06:58;;;;;;;2.43;2.20;;;5.90;67.30;5.40;96944.00;;;;5123340;27;20663;-78
2023/03/28 02:09:30;;;;;;;2.40;2.20;;;5.90;67.50;5.40;96942.00;;;;5116346;27;20214;-78
2023/03/28 02:12:04;;;;;;;2.90;2.70;;;5.90;68.30;5.40;96941.00;;;;5111938;27;20200;-78
2023/03/28 02:14:41;;;;;;;3.83;3.30;;;5.90;67.70;5.40;96936.00;;;;5111461;27;20201;-79
2023/03/28 02:17:15;;;;;;;3.13;2.93;;;5.90;67.80;5.40;96949.00;;;;5117214;27;20199;-78
2023/03/28 02:19:50;;;;;;;3.07;2.87;;;5.90;67.80;5.40;96945.00;;;;5123191;27;20226;-78
2023/03/28 02:22:24;;;;;;;2.80;2.60;;;5.90;67.90;5.50;96938.00;;;;5118249;27;20621;-78
2023/03/28 02:24:53;;;;;;;2.90;2.70;;;5.90;68.20;5.50;96941.00;;;;5105849;28;20252;-78
2023/03/28 02:27:22;;;;;;;3.63;3.10;;;5.90;68.90;5.50;96956.00;;;;5095478;28;20195;-79
2023/03/28 02:29:53;;;;;;;2.77;2.57;;;5.90;68.20;5.50;96957.00;;;;5123297;27;20221;-78
2023/03/28 02:32:22;;;;;;;3.37;2.90;;;5.90;68.20;5.50;96964.00;;;;5121463;27;20644;-78
2023/03/28 02:34:53;;;;;;;2.73;2.53;;;5.90;68.20;5.50;96962.00;;;;5100521;28;20193;-78
2023/03/28 02:37:37;;;;;;;3.13;2.83;;;5.90;68.20;5.50;96961.00;;;;5112678;27;20294;-78
2023/03/28 02:40:40;;;;;;;2.90;2.70;;;6.00;68.40;5.60;96964.00;;;;5087614;28;20302;-78
2023/03/28 02:43:51;;;;;;;3.13;2.83;;;6.00;68.40;5.50;96964.00;;;;5096039;28;20199;-78
2023/03/28 02:46:28;;;;;;;2.77;2.57;;;6.00;68.30;5.60;96961.00;;;;5107245;28;20222;-78
2023/03/28 02:49:22;;;;;;;3.10;2.80;;;6.00;68.20;5.60;96972.00;;;;5087518;28;20214;-78
2023/03/28 02:51:59;;;;;;;3.13;2.83;;;6.00;68.20;5.60;96976.00;;;;5113245;27;20190;-78
2023/03/28 02:54:35;;;;;;;3.23;2.90;;;6.00;68.20;5.70;96977.00;;;;5103663;28;20278;-79
2023/03/28 02:57:12;;;;;;;3.20;3.00;;;6.10;68.30;5.70;96972.00;;;;5125583;27;20304;-79
2023/03/28 02:59:48;;;;;;;3.33;3.03;;;6.10;68.20;5.70;96971.00;;;;5125041;27;20217;-78
2023/03/28 03:02:19;;;;;;;3.63;3.33;;;6.10;68.00;5.70;96976.00;;;;5103351;28;20634;-77
2023/03/28 03:04:46;;;;;;;3.20;3.00;;;6.10;68.10;5.70;96980.00;;;;5122082;27;20549;-77
2023/03/28 03:07:16;;;;;;;4.80;3.70;;;6.10;67.90;5.70;96970.00;;;;5124056;27;20226;-79
2023/03/28 03:09:44;;;;;;;3.30;3.07;;;6.10;67.90;5.70;96977.00;;;;5106087;27;20735;-77
2023/03/28 03:12:14;;;;;;;3.33;3.07;;;6.10;67.80;5.70;96980.00;;;;5090102;28;20203;-78
2023/03/28 03:14:41;;;;;;;3.20;3.00;;;6.10;67.80;5.70;96988.00;;;;5121289;27;20257;-78
2023/03/28 03:17:08;;;;;;;2.97;2.77;;;6.10;67.70;5.70;96984.00;;;;5128271;27;20252;-78
2023/03/28 03:19:36;;;;;;;3.20;2.90;;;6.20;67.70;5.70;96986.00;;;;5132832;27;20214;-78
2023/03/28 03:22:03;;;;;;;3.47;3.00;;;6.10;67.70;5.70;96996.00;;;;5134517;27;20204;-78
2023/03/28 03:24:31;;;;;;;3.87;3.00;;;6.10;67.60;5.70;96999.00;;;;5134077;27;20239;-78
2023/03/28 03:26:58;;;;;;;3.40;3.20;;;6.20;67.60;5.70;97000.00;;;;5136392;27;20221;-79
2023/03/28 03:29:27;;;;;;;3.20;3.00;;;6.10;67.50;5.70;96998.00;;;;5126475;27;20236;-78
2023/03/28 03:31:54;;;;;;;3.60;3.30;;;6.10;67.50;5.70;97001.00;;;;5138763;27;20253;-79
2023/03/28 03:34:23;;;;;;;3.43;2.60;;;6.10;67.50;5.70;97000.00;;;;5116707;27;20204;-79
2023/03/28 03:36:51;;;;;;;3.07;2.87;;;6.10;67.60;5.70;97000.00;;;;5124540;27;20238;-79
2023/03/28 03:39:19;;;;;;;6.23;3.33;;;6.10;67.60;5.80;97008.00;;;;5116251;27;20218;-79
2023/03/28 03:41:46;;;;;;;3.00;2.80;;;6.10;67.60;5.80;96996.00;;;;5112573;28;20217;-79
2023/03/28 03:44:14;;;;;;;2.93;2.73;;;6.20;67.60;5.80;97008.00;;;;5106519;27;20218;-78
2023/03/28 03:46:42;;;;;;;3.87;3.40;;;6.20;67.60;5.80;97014.00;;;;5101731;28;20686;-78
2023/03/28 03:49:19;;;;;;;3.50;3.20;;;6.20;67.60;5.80;97016.00;;;;5109287;28;20746;-79
2023/03/28 03:51:46;;;;;;;4.03;2.93;;;6.20;67.50;5.70;97002.00;;;;5116052;28;20197;-78
2023/03/28 03:54:14;;;;;;;3.73;3.47;;;6.20;67.30;5.70;97021.00;;;;5120685;28;20233;-78
2023/03/28 03:56:42;;;;;;;3.63;2.97;;;6.20;67.20;5.70;97017.00;;;;5113653;28;20222;-78
2023/03/28 03:59:09;;;;;;;3.23;2.87;;;6.10;67.70;5.60;97026.00;;;;5117706;28;20314;-79
2023/03/28 04:01:38;;;;;;;3.50;2.80;;;6.10;67.00;5.60;97023.00;;;;5121358;28;20225;-79
2023/03/28 04:04:08;;;;;;;2.80;2.60;;;6.10;67.00;5.60;97028.00;;;;5118482;27;20579;-80
2023/03/28 04:06:37;;;;;;;3.40;3.10;;;6.10;67.10;5.60;97030.00;;;;5130142;28;20284;-79
2023/03/28 04:09:06;;;;;;;3.43;3.13;;;6.10;66.90;5.60;97032.00;;;;5108712;28;20221;-78
2023/03/28 04:11:34;;;;;;;3.43;3.07;;;6.10;66.90;5.50;97027.00;;;;5113632;28;20544;-78
2023/03/28 04:14:01;;;;;;;3.10;2.80;;;6.00;66.80;5.50;97036.00;;;;5128550;28;20190;-78
2023/03/28 04:16:29;;;;;;;3.30;3.00;;;6.00;66.90;5.50;97027.00;;;;5117206;28;20305;-77
2023/03/28 04:18:57;;;;;;;3.03;2.83;;;6.00;66.90;5.50;97031.00;;;;5121507;28;20264;-79
2023/03/28 04:21:31;;;;;;;4.27;3.20;;;6.00;66.80;5.50;97038.00;;;;5136302;28;20659;-79
2023/03/28 04:24:00;;;;;;;3.30;2.97;;;6.00;66.80;5.40;97028.00;;;;5140099;28;20222;-79
2023/03/28 04:26:28;;;;;;;3.30;3.00;;;6.00;66.80;5.40;97038.00;;;;5122928;28;20197;-79
2023/03/28 04:28:59;;;;;;;5.43;3.47;;;5.90;66.70;5.40;97028.00;;;;5098206;28;20637;-77
2023/03/28 04:31:28;;;;;;;3.73;3.37;;;5.90;66.70;5.40;97033.00;;;;5121160;28;20314;-80
2023/03/28 04:33:55;;;;;;;4.00;3.70;;;5.90;66.60;5.30;97034.00;;;;5119399;28;20666;-79
2023/03/28 04:36:25;;;;;;;3.40;3.10;;;5.90;66.70;5.30;97037.00;;;;5111486;28;20313;-79
2023/03/28 04:38:57;;;;;;;4.23;3.30;;;5.80;66.60;5.30;97043.00;;;;5105345;28;20299;-80
2023/03/28 04:41:24;;;;;;;3.87;3.50;;;5.80;66.60;5.30;97041.00;;;;5076433;28;20224;-79
2023/03/28 04:43:51;;;;;;;3.33;3.03;;;5.80;66.70;5.20;97042.00;;;;5095071;28;20248;-80
2023/03/28 04:46:19;;;;;;;3.63;3.27;;;5.80;66.70;5.20;97041.00;;;;5101230;28;20294;-80
2023/03/28 04:48:47;;;;;;;3.33;3.03;;;5.70;66.70;5.20;97048.00;;;;5110220;28;20194;-78
2023/03/28 04:51:14;;;;;;;3.80;3.50;;;5.70;66.70;5.10;97052.00;;;;5122223;28;20193;-79
2023/03/28 04:53:43;;;;;;;3.80;3.07;;;5.70;66.80;5.10;97046.00;;;;5096224;28;20210;-80
2023/03/28 04:56:12;;;;;;;3.87;3.33;;;5.70;66.90;5.10;97051.00;;;;5097645;28;20247;-80
2023/03/28 04:58:40;;;;;;;3.87;3.47;;;5.60;66.90;5.10;97049.00;;;;5115843;28;20244;-80
2023/03/28 05:01:09;;;;;;;3.70;3.40;;;5.60;66.90;5.10;97057.00;;;;5086054;28;20202;-79
2023/03/28 05:03:38;;;;;;;3.70;3.33;;;5.60;66.90;5.10;97054.00;;;;5115337;27;20203;-79
2023/03/28 05:06:06;;;;;;;3.87;3.57;;;5.60;66.90;5.10;97060.00;;;;5114658;28;20288;-79
2023/03/28 05:08:33;;;;;;;3.23;2.93;;;5.60;66.90;5.10;97055.00;;;;5112642;28;20652;-80
2023/03/28 05:11:02;;;;;;;3.83;3.30;;;5.60;67.00;5.00;97060.00;;;;5112627;28;20199;-79
2023/03/28 05:13:29;;;;;;;5.00;3.40;;;5.60;67.10;5.00;97064.00;;;;5119382;27;20205;-78
2023/03/28 05:15:57;;;;;;;3.80;3.50;;;5.60;67.00;5.00;97064.00;;;;5117749;28;20299;-80
2023/03/28 05:18:24;;;;;;;4.90;3.80;;;5.50;67.00;5.00;97068.00;;;;5116159;28;20188;-79
2023/03/28 05:20:51;;;;;;;4.43;3.50;;;5.50;67.20;5.00;97082.00;;;;5114227;27;20214;-80
2023/03/28 05:23:19;;;;;;;3.43;3.13;;;5.50;67.10;5.00;97077.00;;;;5121372;27;20860;-79
2023/03/28 05:25:51;;;;;;;4.50;3.33;;;5.50;67.10;5.00;97076.00;;;;5114289;27;20712;-79
2023/03/28 05:28:20;;;;;;;4.70;3.20;;;5.50;67.20;5.00;97078.00;;;;5112062;27;20198;-78
2023/03/28 05:30:48;;;;;;;4.07;3.50;;;5.50;67.20;5.10;97084.00;;;;5136382;27;20690;-78
2023/03/28 05:33:15;;;;;;;3.67;2.83;;;5.50;67.20;5.00;97088.00;;;;5121504;27;20372;-79
2023/03/28 05:35:43;;;;;;;4.60;3.30;;;5.50;67.10;5.00;97093.00;;;;5123935;27;20277;-79
2023/03/28 05:38:10;;;;;;;3.83;3.43;;;5.50;67.00;5.00;97100.00;;;;5114218;28;20608;-80
2023/03/28 05:40:38;;;;;;;4.57;3.20;;;5.50;67.20;5.10;97090.00;;;;5120717;27;20221;-79
2023/03/28 05:43:05;;;;;;;3.60;3.20;;;5.50;67.20;5.20;97098.00;;;;5107875;28;20226;-81
2023/03/28 05:45:34;;;;;;;5.03;3.60;;;5.60;67.30;5.20;97097.00;;;;5117509;28;20220;-82
2023/03/28 05:48:02;;;;;;;5.33;3.40;;;5.60;67.30;5.30;97107.00;;;;5117650;28;20225;-81
2023/03/28 05:50:29;;;;;;;3.33;3.03;;;5.60;67.20;5.30;97108.00;;;;5108487;28;20258;-82
2023/03/28 05:52:57;;;;;;;3.60;3.20;;;5.60;67.20;5.30;97109.00;;;;5118442;28;20219;-81
2023/03/28 05:55:25;;;;;;;4.43;3.73;;;5.70;67.20;5.40;97114.00;;;;5105832;28;20477;-82
2023/03/28 05:57:53;;;;;;;4.70;3.97;;;5.70;67.10;5.40;97114.00;;;;5087476;28;20900;-82
2023/03/28 06:00:22;;;;;;;3.17;2.87;;;5.70;67.00;5.40;97123.00;;;;5133281;27;20737;-82
2023/03/28 06:02:51;;;;;;;3.83;3.20;;;5.70;67.10;5.50;97119.00;;;;5121592;27;20238;-81
2023/03/28 06:05:19;;;;;;;3.80;2.97;;;5.70;67.10;5.50;97127.00;;;;5120607;27;20196;-84
2023/03/28 06:07:47;;;;;;;4.63;3.40;;;5.80;67.00;5.50;97134.00;;;;5142055;27;20216;-83
2023/03/28 06:10:16;;;;;;;3.93;3.30;;;5.80;66.90;5.50;97134.00;;;;5137283;28;20212;-82
2023/03/28 06:12:43;;;;;;;3.33;3.13;;;5.80;66.90;5.50;97142.00;;;;5140373;27;20194;-83
2023/03/28 06:15:12;;;;;;;3.60;3.23;;;5.80;66.80;5.50;97150.00;;;;5144570;27;20237;-81
2023/03/28 06:17:40;;;;;;;3.70;2.90;;;5.80;67.00;5.50;97146.00;;;;5117829;27;20648;-82
2023/03/28 06:20:12;;;;;;;3.23;2.80;;;5.80;66.90;5.60;97147.00;;;;5134911;27;20210;-80
2023/03/28 06:22:40;;;;;;;3.67;3.37;;;5.90;67.00;5.60;97152.00;;;;5135232;27;20624;-80
2023/03/28 06:25:09;;;;;;;3.57;3.23;;;5.90;66.90;5.60;97149.00;;;;5113803;27;20200;-83
2023/03/28 06:27:36;;;;;;;4.73;2.87;;;5.90;67.00;5.60;97157.00;;;;5126628;27;20294;-83
2023/03/28 06:30:05;;;;;;;3.17;2.87;;;5.90;67.00;5.70;97161.00;;;;5094884;28;20211;-82
2023/03/28 06:32:33;;;;;;;4.20;3.07;;;6.00;66.90;5.70;97164.00;;;;5093998;28;20692;-81
2023/03/28 06:35:00;;;;;;;4.17;2.97;;;6.00;66.80;5.70;97168.00;;;;5132615;27;20245;-81
2023/03/28 06:37:29;;;;;;;3.00;2.70;;;6.00;66.80;5.80;97170.00;;;;5115711;28;20229;-81
2023/03/28 06:39:57;;;;;;;3.10;2.80;;;6.10;66.90;5.80;97183.00;;;;5108418;27;20230;-81
2023/03/28 06:42:25;;;;;;;4.30;2.87;;;6.10;66.80;5.90;97191.00;;;;5138105;27;20713;-82
2023/03/28 06:44:53;;;;;;;3.67;2.70;;;6.10;66.70;5.90;97192.00;;;;5088572;28;20282;-81
2023/03/28 06:47:20;;;;;;;4.93;3.10;;;6.20;66.90;6.00;97190.00;;;;5104567;28;20203;-81
2023/03/28 06:49:47;;;;;;;2.90;2.70;;;6.20;66.90;6.10;97195.00;;;;5113169;28;20293;-81
2023/03/28 06:52:15;;;;;;;2.63;2.43;;;6.30;66.90;6.20;97204.00;;;;5096586;28;20199;-81
2023/03/28 06:54:44;;;;;;;3.20;2.90;;;6.30;66.90;6.20;97212.00;;;;5098507;28;20199;-82
2023/03/28 06:57:11;;;;;;;3.70;2.70;;;6.40;66.80;6.30;97217.00;;;;5130261;27;20218;-80
2023/03/28 06:59:39;;;;;;;2.87;2.40;;;6.50;66.70;6.40;97213.00;;;;5110685;27;20310;-82
2023/03/28 07:02:07;;;;;;;2.87;2.60;;;6.50;66.70;6.50;97220.00;;;;5123752;27;20193;-81
2023/03/28 07:04:34;;;;;;;2.87;2.50;;;6.60;66.60;6.60;97219.00;;;;5116844;27;20258;-82
2023/03/28 07:07:03;;;;;;;3.07;2.10;;;6.60;66.30;6.60;97221.00;;;;5101350;28;20233;-81
2023/03/28 07:09:30;;;;;;;3.17;2.33;;;6.70;66.00;6.70;97228.00;;;;5117558;27;20268;-82
2023/03/28 07:11:59;;;;;;;2.80;2.60;;;6.80;65.80;6.70;97233.00;;;;5127191;27;20209;-81
2023/03/28 07:14:27;;;;;;;2.27;2.13;;;6.80;65.60;6.70;97232.00;;;;5105348;28;20258;-81
2023/03/28 07:16:54;;;;;;;2.70;2.40;;;6.80;65.50;6.80;97243.00;;;;5115295;28;20222;-82
2023/03/28 07:19:22;;;;;;;3.30;2.00;;;6.90;65.40;6.80;97232.00;;;;5117947;27;20236;-81
2023/03/28 07:21:51;;;;;;;3.23;1.93;;;7.00;66.10;6.90;97248.00;;;;5112522;27;20204;-81
2023/03/28 07:24:19;;;;;;;2.80;2.07;;;7.00;65.10;6.90;97244.00;;;;5109580;28;20198;-82
2023/03/28 07:26:46;;;;;;;2.80;1.90;;;7.00;64.60;7.00;97255.00;;;;5112603;27;20685;-82
2023/03/28 07:29:15;;;;;;;2.23;1.93;;;7.10;64.70;7.00;97254.00;;;;5108174;27;20218;-81
2023/03/28 07:31:43;;;;;;;3.23;2.20;;;7.10;64.40;7.10;97261.00;;;;5110607;27;20229;-82
2023/03/28 07:34:10;;;;;;;2.53;1.67;;;7.20;64.20;7.10;97260.00;;;;5113349;28;20282;-82
2023/03/28 07:36:40;;;;;;;2.50;1.70;;;7.20;64.00;7.10;97268.00;;;;5112621;28;20279;-84
2023/03/28 07:39:08;;;;;;;2.27;1.40;;;7.20;63.80;7.10;97275.00;;;;5107508;28;20223;-82
2023/03/28 07:41:35;;;;;;;2.70;1.80;;;7.30;63.90;7.20;97267.00;;;;5109991;28;20664;-82
2023/03/28 07:44:04;;;;;;;2.23;1.80;;;7.30;63.90;7.30;97274.00;;;;5103483;28;20285;-81
2023/03/28 07:46:36;;;;;;;2.90;1.77;;;7.40;63.90;7.40;97274.00;;;;5113168;28;20774;-81
2023/03/28 07:49:04;;;;;;;3.63;1.80;;;7.40;63.90;7.60;97278.00;;;;5098945;28;20813;-81
2023/03/28 07:51:33;;;;;;;2.37;1.97;;;7.50;64.10;7.70;97289.00;;;;5114204;28;20203;-80
2023/03/28 07:54:01;;;;;;;2.80;1.83;;;7.60;64.20;7.80;97292.00;;;;5116313;28;20198;-79
2023/03/28 07:56:28;;;;;;;3.67;1.97;;;7.70;64.10;8.00;97287.00;;;;5115917;28;20202;-81
2023/03/28 07:58:56;;;;;;;2.30;2.10;;;7.80;64.10;8.10;97291.00;;;;5093140;28;20694;-84
2023/03/28 08:01:25;;;;;;;3.13;1.80;;;7.90;64.30;8.30;97296.00;;;;5113651;28;20198;-80
2023/03/28 08:03:53;;;;;;;3.17;1.77;;;8.10;64.40;8.40;97298.00;;;;5115514;28;20615;-79
2023/03/28 08:06:21;;;;;;;2.73;1.73;;;8.20;63.90;8.50;97299.00;;;;5113668;28;20372;-80
2023/03/28 08:08:49;;;;;;;2.30;1.83;;;8.30;63.30;8.60;97302.00;;;;5115079;28;20909;-81
2023/03/28 08:11:16;;;;;;;2.53;1.87;;;8.40;63.10;8.70;97308.00;;;;5106631;28;20195;-81
2023/03/28 08:13:44;;;;;;;2.87;1.97;;;8.50;62.90;8.80;97307.00;;;;5094762;28;20263;-81
2023/03/28 08:16:11;;;;;;;2.83;1.67;;;8.60;62.80;8.80;97310.00;;;;5109851;28;20230;-80
2023/03/28 08:18:39;;;;;;;2.57;1.70;;;8.60;62.60;8.90;97309.00;;;;5106629;28;20215;-79
2023/03/28 08:21:08;;;;;;;2.90;1.70;;;8.70;62.10;9.00;97305.00;;;;5095508;28;20248;-81
2023/03/28 08:23:36;;;;;;;3.93;1.60;;;8.80;61.80;9.00;97317.00;;;;5115745;28;20202;-82
2023/03/28 08:26:06;;;;;;;2.27;1.90;;;8.90;61.50;9.00;97318.00;;;;5115943;28;20205;-81
2023/03/28 08:28:34;;;;;;;2.50;1.77;;;8.90;60.10;9.00;97321.00;;;;5107379;28;20225;-82
2023/03/28 08:31:03;;;;;;;1.83;1.47;;;8.90;60.60;9.00;97321.00;;;;5099309;28;20197;-83
2023/03/28 08:33:31;;;;;;;1.97;1.50;;;9.00;60.50;9.00;97326.00;;;;5107340;28;20229;-81
2023/03/28 08:35:58;;;;;;;3.37;1.63;;;9.00;60.60;9.10;97317.00;;;;5133883;28;20201;-82
2023/03/28 08:38:28;;;;;;;2.97;1.50;;;9.00;60.70;9.30;97332.00;;;;5131406;28;20656;-81
2023/03/28 08:41:07;;;;;;;1.53;1.40;;;9.10;60.90;9.40;97328.00;;;;5102128;28;20222;-81
2023/03/28 08:44:09;;;;;;;3.03;1.67;;;9.20;60.50;9.60;97329.00;;;;5123663;28;20190;-82
2023/03/28 08:46:44;;;;;;;1.80;1.50;;;9.30;60.60;9.70;97332.00;;;;5129534;27;20232;-81
2023/03/28 08:49:16;;;;;;;1.80;1.47;;;9.40;60.60;9.80;97327.00;;;;5131653;27;20218;-86
2023/03/28 08:51:47;;;;;;;1.87;1.33;;;9.50;59.90;9.80;97336.00;;;;5131952;27;20214;-82
2023/03/28 08:54:22;;;;;;;2.33;1.80;;;9.60;59.70;9.80;97335.00;;;;5127417;27;20222;-82
2023/03/28 08:56:54;;;;;;;1.57;1.20;;;9.60;59.50;10.00;97339.00;;;;5125256;27;20209;-81
2023/03/28 08:59:28;;;;;;;2.43;1.50;;;9.70;59.50;10.30;97336.00;;;;5150055;27;20218;-81
2023/03/28 09:01:55;;;;;;;3.93;1.40;;;9.90;59.70;10.50;97345.00;;;;5140308;27;20201;-81
2023/03/28 09:04:31;;;;;;;4.77;1.10;;;10.00;59.80;10.80;97345.00;;;;5128968;27;20258;-81
2023/03/28 09:07:13;;;;;;;2.80;1.40;;;10.20;59.50;11.00;97353.00;;;;5117891;27;20213;-82
2023/03/28 09:09:57;;;;;;;3.40;1.30;;;10.40;58.90;11.00;97354.00;;;;5118540;28;20268;-80
2023/03/28 09:12:42;;;;;;;2.47;0.90;;;10.50;58.20;10.90;97353.00;;;;5119107;27;20248;-80
2023/03/28 09:15:42;;;;;;;1.30;1.03;;;10.60;57.10;10.80;97348.00;;;;5084092;28;20729;-81
2023/03/28 09:19:05;;;;;;;2.40;0.93;;;10.60;56.40;10.80;97343.00;;;;5119007;27;20697;-81
2023/03/28 09:21:50;;;;;;;1.67;0.90;;;10.60;56.40;10.90;97361.00;;;;5126563;27;20212;-81
2023/03/28 09:24:53;;;;;;;2.37;0.97;;;10.60;56.60;10.80;97343.00;;;;5119020;27;20290;-81
2023/03/28 09:27:32;;;;;;;1.40;1.10;;;10.70;55.40;10.70;97355.00;;;;5113144;28;20199;-82
2023/03/28 09:30:18;;;;;;;1.00;1.00;;;10.60;55.60;10.60;97354.00;;;;5112374;28;20214;-80
2023/03/28 09:32:48;;;;;;;1.07;1.00;;;10.60;55.50;10.60;97353.00;;;;5118886;28;20198;-80
2023/03/28 09:35:19;;;;;;;1.33;0.90;;;10.60;55.80;10.60;97358.00;;;;5117712;28;20191;-82
2023/03/28 09:37:52;;;;;;;2.80;1.10;;;10.60;55.60;10.70;97344.00;;;;5119735;28;20294;-80
2023/03/28 09:40:26;;;;;;;1.70;1.10;;;10.60;55.40;10.70;97354.00;;;;5118296;27;20315;-82
2023/03/28 09:43:08;;;;;;;2.87;1.37;;;10.50;54.80;11.00;97353.00;;;;5120172;27;20202;-81
2023/03/28 09:45:57;;;;;;;1.53;1.20;;;10.60;55.70;11.40;97353.00;;;;5114081;27;20212;-81
2023/03/28 09:48:45;;;;;;;1.37;1.10;;;10.80;56.20;11.70;97351.00;;;;5126695;27;20207;-80
2023/03/28 09:51:18;;;;;;;2.97;1.10;;;11.00;56.40;12.00;97357.00;;;;5102485;27;20206;-81
2023/03/28 09:53:46;;;;;;;1.37;0.83;;;11.20;55.40;12.00;97356.00;;;;5117181;27;20259;-80
2023/03/28 09:56:26;;;;;;;1.00;0.80;;;11.40;55.40;11.90;97353.00;;;;5117041;28;20190;-80
2023/03/28 09:58:57;;;;;;;2.20;0.90;;;11.50;54.70;12.00;97354.00;;;;5122030;27;20224;-81
2023/03/28 10:01:37;;;;;;;1.83;0.90;;;11.60;54.60;12.00;97349.00;;;;5122875;27;20229;-80
2023/03/28 10:04:13;;;;;;;1.87;0.97;;;11.70;54.00;11.90;97356.00;;;;5126201;27;20261;-80
2023/03/28 10:06:42;;;;;;;1.97;1.00;;;11.80;53.80;11.80;97353.00;;;;5124586;27;20224;-80
2023/03/28 10:09:17;;;;;;;1.07;0.83;;;11.70;53.70;11.70;97354.00;;;;5097300;28;20223;-80
2023/03/28 10:11:53;;;;;;;1.57;1.07;;;11.70;53.50;11.80;97359.00;;;;5116162;27;20202;-79
2023/03/28 10:14:36;;;;;;;2.17;1.07;;;11.70;54.30;11.90;97356.00;;;;5107332;27;20199;-80
2023/03/28 10:17:25;;;;;;;3.53;1.17;;;11.80;53.90;12.10;97358.00;;;;5111221;27;20575;-81
2023/03/28 10:20:00;;;;;;;2.23;1.10;;;11.90;54.40;12.40;97348.00;;;;5129635;27;20226;-81
2023/03/28 10:22:33;;;;;;;2.17;1.00;;;12.10;54.80;12.70;97342.00;;;;5123481;27;20636;-81
2023/03/28 10:25:04;;;;;;;1.70;1.13;;;12.30;54.00;12.90;97347.00;;;;5118769;27;20581;-81
2023/03/28 10:27:37;;;;;;;4.63;0.67;;;12.60;54.70;13.10;97353.00;;;;5099843;28;20666;-80
2023/03/28 10:30:22;;;;;;;1.10;0.83;;;12.80;53.50;13.20;97350.00;;;;5116827;28;20246;-80
2023/03/28 10:33:20;;;;;;;0.70;0.53;;;13.00;53.10;13.40;97359.00;;;;5115393;28;20206;-80
2023/03/28 10:35:56;;;;;;;1.73;1.10;;;13.20;52.80;13.50;97357.00;;;;5120045;27;20190;-81
2023/03/28 10:38:26;;;;;;;2.97;0.50;;;13.30;52.40;13.50;97358.00;;;;5101021;28;20229;-80
2023/03/28 10:41:02;;;;;;;0.83;0.50;;;13.40;51.60;13.60;97361.00;;;;5098939;28;20279;-81
2023/03/28 10:43:38;;;;;;;0.63;0.60;;;13.50;51.20;13.70;97354.00;;;;5110245;27;20281;-81
2023/03/28 10:46:17;;;;;;;1.47;1.07;;;13.60;51.10;13.80;97346.00;;;;5115418;28;20309;-80
2023/03/28 10:48:50;;;;;;;2.00;0.80;;;13.70;50.30;13.80;97352.00;;;;5137711;27;20192;-81
2023/03/28 10:51:22;;;;;;;1.27;0.80;;;13.80;50.10;13.80;97360.00;;;;5105576;27;20289;-79
2023/03/28 10:54:21;;;;;;;1.60;0.83;;;13.90;50.10;13.70;97359.00;;;;5116115;28;20252;-81
2023/03/28 10:56:57;;;;;;;2.37;1.20;;;13.90;48.40;13.60;97354.00;;;;5115724;28;20670;-81
2023/03/28 10:59:59;;;;;;;1.53;0.90;;;13.80;49.40;13.40;97348.00;;;;5116736;28;20317;-80
2023/03/28 11:02:58;;;;;;;0.97;0.80;;;13.70;48.60;13.20;97347.00;;;;5112795;28;20281;-81
2023/03/28 11:05:50;;;;;;;0.90;0.47;;;13.60;48.20;13.00;97343.00;;;;5116430;28;20281;-79
2023/03/28 11:08:39;;;;;;;1.13;0.80;;;13.40;47.80;12.80;97343.00;;;;5118044;27;20199;-80
2023/03/28 11:11:34;;;;;;;1.27;0.70;;;13.20;47.80;12.80;97348.00;;;;5116497;28;20205;-81
2023/03/28 11:14:17;;;;;;;1.23;0.60;;;13.10;48.20;12.70;97346.00;;;;5104144;28;20203;-81
2023/03/28 11:16:58;;;;;;;0.77;0.70;;;13.00;48.60;12.70;97350.00;;;;5119484;28;20228;-81
2023/03/28 11:20:16;;;;;;;1.23;0.63;;;12.90;47.80;12.60;97344.00;;;;5121618;28;20298;-81
2023/03/28 11:23:02;;;;;;;0.77;0.70;;;12.80;47.60;12.60;97337.00;;;;5119199;27;20196;-82
2023/03/28 11:25:42;;;;;;;0.50;0.50;;;12.70;48.00;12.60;97343.00;;;;5108400;27;20199;-81
2023/03/28 11:28:38;;;;;;;0.77;0.77;;;12.70;48.10;12.60;97337.00;;;;5078972;28;20234;-81
2023/03/28 11:31:13;;;;;;;1.83;0.53;;;12.70;48.00;12.60;97327.00;;;;5098856;28;20187;-81
2023/03/28 11:33:57;;;;;;;0.80;0.60;;;12.60;48.50;12.60;97329.00;;;;5097830;28;20210;-80
2023/03/28 11:36:33;;;;;;;1.40;0.73;;;12.60;47.70;12.60;97326.00;;;;5105670;28;20229;-80